Belford, New Jersey
Current Conditions -  °F | °C
As of 8:15 PM on Wednesday 22 Oct 2014 (Local Time) from KLDJ Reporting Station
Light Rain Light Rain  
Wind Chill: 56°   Ceiling: 3300
Heat Index: 56°   Visibility: 7mi
Dew Point: 53°   Wind: 13mph
Humidity: 89%   Direction: 360°N
Pressure: 29.81"   Gusts: 18mph
Location:  40.43°N, 74.09°W
Report Text: KLDJ 230015Z AUTO 36011G16KT 7SM -RA SCT018 SCT025 OVC033 13/12 A2981 RMK AO2 P0001 T01330115
Loading
Personal Weather Stations






























Interactive Weather Map
Tropical Storm Tracking
New forecast layout! Learn more

10-Day Weather Forecast

Advertisements
Track Severe Weather on mobile